createdAt,value
2023-04-20T00:01:22.101Z,25.70
2023-04-20T00:06:29.854Z,16.65
2023-04-20T00:11:32.558Z,15.68
2023-04-20T00:16:35.304Z,17.60
2023-04-20T00:21:37.863Z,19.05
2023-04-20T00:26:40.421Z,14.70
2023-04-20T00:31:43.127Z,16.48
2023-04-20T00:36:45.653Z,14.18
2023-04-20T00:41:48.290Z,12.50
2023-04-20T00:46:54.000Z,14.93
2023-04-20T00:52:01.053Z,19.80
2023-04-20T00:57:04.706Z,16.75
2023-04-20T01:02:10.638Z,13.43
2023-04-20T01:07:16.503Z,17.25
2023-04-20T01:12:19.164Z,16.45
2023-04-20T01:17:22.409Z,13.68
2023-04-20T01:22:24.959Z,16.90
2023-04-20T01:27:27.679Z,14.77
2023-04-20T01:32:30.752Z,14.82
2023-04-20T01:37:35.514Z,13.65
2023-04-20T01:42:40.364Z,15.15
2023-04-20T01:47:43.229Z,16.92
2023-04-20T01:52:45.925Z,16.17
2023-04-20T01:57:48.804Z,13.27
2023-04-20T02:02:51.745Z,23.08
2023-04-20T02:07:54.497Z,14.18
2023-04-20T02:12:57.105Z,17.75
2023-04-20T02:18:00.502Z,17.77
2023-04-20T02:23:03.200Z,19.67
2023-04-20T02:28:05.775Z,19.70
2023-04-20T02:33:08.506Z,16.73
2023-04-20T02:38:11.030Z,15.65
2023-04-20T02:43:14.831Z,15.57
2023-04-20T02:48:17.803Z,15.35
2023-04-20T02:53:20.566Z,22.83
2023-04-20T02:58:29.458Z,15.05
2023-04-20T03:03:55.094Z,26.20
2023-04-20T03:08:58.081Z,19.90
2023-04-20T03:14:21.014Z,19.33
2023-04-20T03:19:24.355Z,20.60
2023-04-20T03:24:27.183Z,20.98
2023-04-20T03:29:31.803Z,24.20
2023-04-20T03:34:35.351Z,19.50
2023-04-20T03:39:38.523Z,18.20
2023-04-20T03:44:41.298Z,23.33
2023-04-20T03:49:44.924Z,21.42
2023-04-20T03:54:48.031Z,18.85
2023-04-20T03:59:52.719Z,17.38
2023-04-20T04:04:58.199Z,19.13
2023-04-20T04:10:04.972Z,19.50
2023-04-20T04:15:09.203Z,18.33
2023-04-20T04:20:19.884Z,24.35
2023-04-20T04:25:23.363Z,17.05
2023-04-20T04:30:27.349Z,22.60
2023-04-20T04:35:30.566Z,18.50
2023-04-20T04:40:33.768Z,20.98
2023-04-20T04:45:40.987Z,20.00
2023-04-20T04:50:46.785Z,23.45
2023-04-20T04:55:49.423Z,22.20
2023-04-20T05:00:52.158Z,26.98
2023-04-20T05:05:55.103Z,21.08
2023-04-20T05:10:58.174Z,18.13
2023-04-20T05:16:00.833Z,19.50
2023-04-20T05:21:03.470Z,18.35
2023-04-20T05:26:06.505Z,18.75
2023-04-20T05:31:09.262Z,18.50
2023-04-20T05:36:11.823Z,20.20
2023-04-20T05:41:14.717Z,22.33
2023-04-20T05:46:17.273Z,19.25
2023-04-20T05:51:20.001Z,18.55
2023-04-20T05:56:22.577Z,22.30
2023-04-20T06:01:25.478Z,14.15
2023-04-20T06:06:28.123Z,12.88
2023-04-20T06:11:31.392Z,10.40
2023-04-20T06:16:34.265Z,13.85
2023-04-20T06:21:36.946Z,17.83
2023-04-20T06:26:39.550Z,13.65
2023-04-20T06:31:42.455Z,10.73
2023-04-20T06:36:45.104Z,8.80
2023-04-20T06:41:47.826Z,17.02
2023-04-20T06:46:50.817Z,11.00
2023-04-20T06:51:53.537Z,14.27
2023-04-20T06:56:56.376Z,14.40
2023-04-20T07:01:59.164Z,10.25
2023-04-20T07:07:01.879Z,14.52
2023-04-20T07:12:04.708Z,11.50
2023-04-20T07:17:07.390Z,9.13
2023-04-20T07:22:09.945Z,9.90
2023-04-20T07:27:12.488Z,7.75
2023-04-20T07:32:15.243Z,8.90
2023-04-20T07:37:17.987Z,7.30
2023-04-20T07:42:21.559Z,10.18
2023-04-20T07:47:24.192Z,9.10
2023-04-20T07:52:27.072Z,12.15
2023-04-20T07:57:29.829Z,7.10
2023-04-20T08:02:33.317Z,5.88
2023-04-20T08:07:36.449Z,5.00
2023-04-20T08:12:40.315Z,11.20
2023-04-20T08:17:42.924Z,8.50
2023-04-20T08:22:45.748Z,9.13
2023-04-20T08:27:48.372Z,8.93
2023-04-20T08:32:51.127Z,7.22
2023-04-20T08:37:53.827Z,6.47
2023-04-20T08:42:57.144Z,10.68
2023-04-20T08:48:05.322Z,8.75
2023-04-20T08:53:09.759Z,8.35
2023-04-20T08:58:12.477Z,11.02
2023-04-20T09:03:15.557Z,10.13
2023-04-20T09:08:18.531Z,8.00
2023-04-20T09:13:23.200Z,10.77
2023-04-20T09:18:25.829Z,8.38
2023-04-20T09:23:28.435Z,7.07
2023-04-20T09:28:42.867Z,7.80
2023-04-20T09:33:45.792Z,10.02
2023-04-20T09:38:48.342Z,8.10
2023-04-20T09:43:51.445Z,6.03
2023-04-20T09:48:54.141Z,12.25
2023-04-20T09:53:58.839Z,11.90
2023-04-20T09:59:02.528Z,12.10
2023-04-20T10:04:11.150Z,7.15
2023-04-20T10:09:23.018Z,10.05
2023-04-20T10:14:26.649Z,6.70
2023-04-20T10:19:44.117Z,6.03
2023-04-20T10:24:47.107Z,7.05
2023-04-20T10:29:49.874Z,7.20
2023-04-20T10:35:10.197Z,7.85
2023-04-20T10:40:13.454Z,4.85
2023-04-20T10:45:16.087Z,7.65
2023-04-20T10:50:19.151Z,25.85
2023-04-20T10:55:23.876Z,7.60
2023-04-20T11:00:28.846Z,7.00
2023-04-20T11:05:31.507Z,6.70
2023-04-20T11:10:39.806Z,12.73
2023-04-20T11:15:42.407Z,6.07
2023-04-20T11:20:52.065Z,5.75
2023-04-20T11:25:56.419Z,5.18
2023-04-20T11:30:59.063Z,11.18
2023-04-20T11:36:02.382Z,5.88
2023-04-20T11:41:05.022Z,9.60
2023-04-20T11:46:20.873Z,8.60
2023-04-20T11:51:26.978Z,14.43
2023-04-20T11:56:29.559Z,7.85
2023-04-20T12:01:33.209Z,6.10
2023-04-20T12:06:35.862Z,7.18
2023-04-20T12:11:38.380Z,5.88
2023-04-20T12:16:41.056Z,8.70
2023-04-20T12:21:43.882Z,8.32
2023-04-20T12:26:47.092Z,8.73
2023-04-20T12:31:49.810Z,10.05
2023-04-20T12:37:35.520Z,7.22
2023-04-20T12:42:49.262Z,7.30
2023-04-20T12:48:00.333Z,8.27
2023-04-20T12:53:03.782Z,9.98
2023-04-20T12:58:06.440Z,8.85
2023-04-20T13:03:10.101Z,10.95
2023-04-20T13:08:12.859Z,5.28
2023-04-20T13:13:15.494Z,7.68
2023-04-20T13:18:18.386Z,7.93
2023-04-20T13:23:22.691Z,13.40
2023-04-20T13:28:25.794Z,6.25
2023-04-20T13:33:28.394Z,7.82
2023-04-20T13:38:31.090Z,6.72
2023-04-20T13:43:33.792Z,8.10
2023-04-20T13:48:36.506Z,9.85
2023-04-20T13:53:39.095Z,6.47
2023-04-20T13:58:41.849Z,11.85
2023-04-20T14:03:44.945Z,8.23
2023-04-20T14:08:48.236Z,5.35
2023-04-20T14:13:51.963Z,7.25
2023-04-20T14:18:54.635Z,12.98
2023-04-20T14:23:57.284Z,5.32
2023-04-20T14:29:00.057Z,10.50
2023-04-20T14:34:03.138Z,5.45
2023-04-20T14:39:05.764Z,5.72
2023-04-20T14:44:08.294Z,8.27
2023-04-20T14:49:10.892Z,13.93
2023-04-20T14:54:13.415Z,8.52
2023-04-20T14:59:16.597Z,5.30
2023-04-20T15:04:21.660Z,9.68
2023-04-20T15:09:24.517Z,5.88
2023-04-20T15:14:27.480Z,9.73
2023-04-20T15:19:30.208Z,7.55
2023-04-20T15:24:32.990Z,6.43
2023-04-20T15:29:36.420Z,9.23
2023-04-20T15:34:39.114Z,10.18
2023-04-20T15:39:41.800Z,7.60
2023-04-20T15:44:44.745Z,7.18
2023-04-20T15:49:47.473Z,9.13
2023-04-20T15:54:50.161Z,7.72
2023-04-20T15:59:52.757Z,9.27
2023-04-20T16:04:55.462Z,9.82
2023-04-20T16:09:58.123Z,7.05
2023-04-20T16:15:02.121Z,18.65
2023-04-20T16:20:08.614Z,9.13
2023-04-20T16:25:22.445Z,4.65
2023-04-20T16:30:25.182Z,6.53
2023-04-20T16:35:27.853Z,7.55
2023-04-20T16:40:31.048Z,9.38
2023-04-20T16:45:33.872Z,7.00
2023-04-20T16:50:38.074Z,6.28
2023-04-20T16:55:44.843Z,10.07
2023-04-20T17:00:47.487Z,7.47
2023-04-20T17:05:50.073Z,9.23
2023-04-20T17:10:52.717Z,9.32
2023-04-20T17:15:55.251Z,11.80
2023-04-20T17:20:58.735Z,8.40
2023-04-20T17:26:02.535Z,9.60
2023-04-20T17:31:05.434Z,6.75
2023-04-20T17:36:08.191Z,7.65
2023-04-20T17:41:10.953Z,11.90
2023-04-20T17:46:13.682Z,10.38
2023-04-20T17:51:16.385Z,10.63
2023-04-20T17:56:19.046Z,11.15
2023-04-20T18:01:22.188Z,10.10
2023-04-20T18:06:24.798Z,8.60
2023-04-20T18:11:27.981Z,10.68
2023-04-20T18:16:30.820Z,11.88
2023-04-20T18:21:34.877Z,15.00
2023-04-20T18:26:38.139Z,13.98
2023-04-20T18:31:41.284Z,18.70
2023-04-20T18:36:43.923Z,14.65
2023-04-20T18:41:46.684Z,32.78
2023-04-20T18:46:49.302Z,12.95
2023-04-20T18:51:52.032Z,16.30
2023-04-20T18:56:58.387Z,16.75
2023-04-20T19:02:05.641Z,24.63
2023-04-20T19:07:08.277Z,22.48
2023-04-20T19:12:11.003Z,22.17
2023-04-20T19:17:13.705Z,13.52
2023-04-20T19:22:16.323Z,25.42
2023-04-20T19:27:18.876Z,20.88
2023-04-20T19:32:21.611Z,19.92
2023-04-20T19:37:24.159Z,18.30
2023-04-20T19:42:26.705Z,28.48
2023-04-20T19:47:29.364Z,19.65
2023-04-20T19:52:34.446Z,26.27
2023-04-20T19:57:37.143Z,19.10
2023-04-20T20:02:41.290Z,13.93
2023-04-20T20:07:43.961Z,22.08
2023-04-20T20:12:47.089Z,21.30
2023-04-20T20:17:50.190Z,12.15
2023-04-20T20:22:52.936Z,13.70
2023-04-20T20:27:55.721Z,23.58
2023-04-20T20:32:59.147Z,21.58
2023-04-20T20:38:06.291Z,18.30
2023-04-20T20:43:08.969Z,13.80
2023-04-20T20:48:11.580Z,19.55
2023-04-20T20:53:17.322Z,53.35
2023-04-20T20:58:20.078Z,23.30
2023-04-20T21:03:22.898Z,16.58
2023-04-20T21:08:25.666Z,13.07
2023-04-20T21:13:28.264Z,12.68
2023-04-20T21:18:31.110Z,16.67
2023-04-20T21:23:33.887Z,11.98
2023-04-20T21:28:36.517Z,11.32
2023-04-20T21:33:39.229Z,12.60
2023-04-20T21:38:41.910Z,12.45
2023-04-20T21:43:44.595Z,15.23
2023-04-20T21:48:47.656Z,10.52
2023-04-20T21:53:50.257Z,12.70
2023-04-20T21:58:52.956Z,10.20
2023-04-20T22:03:56.388Z,12.48
2023-04-20T22:08:59.046Z,10.05
2023-04-20T22:14:01.903Z,6.65
2023-04-20T22:19:04.596Z,7.03
2023-04-20T22:24:07.430Z,8.63
2023-04-20T22:29:10.072Z,10.00
2023-04-20T22:34:12.867Z,7.85
2023-04-20T22:39:15.452Z,7.65
2023-04-20T22:44:18.114Z,8.68
2023-04-20T22:49:21.195Z,11.07
2023-04-20T22:54:24.631Z,9.95
2023-04-20T22:59:27.318Z,9.20
2023-04-20T23:04:29.807Z,7.10
2023-04-20T23:09:32.539Z,11.07
2023-04-20T23:14:37.024Z,13.02
2023-04-20T23:19:40.383Z,12.73
2023-04-20T23:24:43.059Z,9.00
2023-04-20T23:29:45.723Z,8.23
2023-04-20T23:34:48.312Z,16.15
2023-04-20T23:39:50.965Z,9.18
2023-04-20T23:44:53.513Z,11.50
2023-04-20T23:49:56.088Z,6.55
2023-04-20T23:54:58.691Z,8.68
